sensor_id;sensor_type;location;lat;lon;timestamp;temperature;humidity
46508;DHT22;32223;53.654;10.014;2023-01-23T00:01:17;2.50;99.90
46508;DHT22;32223;53.654;10.014;2023-01-23T00:03:43;2.50;99.90
46508;DHT22;32223;53.654;10.014;2023-01-23T00:06:14;2.50;99.90
46508;DHT22;32223;53.654;10.014;2023-01-23T00:08:41;2.50;99.90
46508;DHT22;32223;53.654;10.014;2023-01-23T00:11:13;2.50;99.90
46508;DHT22;32223;53.654;10.014;2023-01-23T00:13:39;2.50;99.90
46508;DHT22;32223;53.654;10.014;2023-01-23T00:16:06;2.50;99.90
46508;DHT22;32223;53.654;10.014;2023-01-23T00:18:32;2.50;99.90
46508;DHT22;32223;53.654;10.014;2023-01-23T00:21:03;2.50;99.90
46508;DHT22;32223;53.654;10.014;2023-01-23T00:23:28;2.50;99.90
46508;DHT22;32223;53.654;10.014;2023-01-23T00:25:54;2.50;99.90
46508;DHT22;32223;53.654;10.014;2023-01-23T00:28:19;2.50;99.90
46508;DHT22;32223;53.654;10.014;2023-01-23T00:30:45;2.40;99.90
46508;DHT22;32223;53.654;10.014;2023-01-23T00:33:10;2.40;99.90
46508;DHT22;32223;53.654;10.014;2023-01-23T00:35:36;2.40;99.90
46508;DHT22;32223;53.654;10.014;2023-01-23T00:38:01;2.40;99.90
46508;DHT22;32223;53.654;10.014;2023-01-23T00:40:27;2.40;99.90
46508;DHT22;32223;53.654;10.014;2023-01-23T00:42:53;2.40;99.90
46508;DHT22;32223;53.654;10.014;2023-01-23T00:45:18;2.30;99.90
46508;DHT22;32223;53.654;10.014;2023-01-23T00:47:44;2.30;99.90
46508;DHT22;32223;53.654;10.014;2023-01-23T00:50:10;2.30;99.90
46508;DHT22;32223;53.654;10.014;2023-01-23T00:52:35;2.30;99.90
46508;DHT22;32223;53.654;10.014;2023-01-23T00:55:02;2.20;99.90
46508;DHT22;32223;53.654;10.014;2023-01-23T00:57:27;2.20;99.90
46508;DHT22;32223;53.654;10.014;2023-01-23T00:59:53;2.20;99.90
46508;DHT22;32223;53.654;10.014;2023-01-23T01:02:19;2.20;99.90
46508;DHT22;32223;53.654;10.014;2023-01-23T01:04:44;2.20;99.90
46508;DHT22;32223;53.654;10.014;2023-01-23T01:07:10;2.20;99.90
46508;DHT22;32223;53.654;10.014;2023-01-23T01:09:35;2.20;99.90
46508;DHT22;32223;53.654;10.014;2023-01-23T01:12:01;2.10;99.90
46508;DHT22;32223;53.654;10.014;2023-01-23T01:14:27;2.10;99.90
46508;DHT22;32223;53.654;10.014;2023-01-23T01:16:52;2.10;99.90
46508;DHT22;32223;53.654;10.014;2023-01-23T01:19:18;2.10;99.90
46508;DHT22;32223;53.654;10.014;2023-01-23T01:21:44;2.10;99.90
46508;DHT22;32223;53.654;10.014;2023-01-23T01:24:10;2.10;99.90
46508;DHT22;32223;53.654;10.014;2023-01-23T01:26:36;2.10;99.90
46508;DHT22;32223;53.654;10.014;2023-01-23T01:29:02;2.10;99.90
46508;DHT22;32223;53.654;10.014;2023-01-23T01:31:28;2.10;99.90
46508;DHT22;32223;53.654;10.014;2023-01-23T01:33:53;2.10;99.90
46508;DHT22;32223;53.654;10.014;2023-01-23T01:36:21;2.10;99.90
46508;DHT22;32223;53.654;10.014;2023-01-23T01:38:47;2.10;99.90
46508;DHT22;32223;53.654;10.014;2023-01-23T01:41:13;2.10;99.90
46508;DHT22;32223;53.654;10.014;2023-01-23T01:43:40;2.10;99.90
46508;DHT22;32223;53.654;10.014;2023-01-23T01:46:28;2.10;99.90
46508;DHT22;32223;53.654;10.014;2023-01-23T01:49:21;2.00;99.90
46508;DHT22;32223;53.654;10.014;2023-01-23T01:54:31;2.10;99.90
46508;DHT22;32223;53.654;10.014;2023-01-23T02:02:17;2.10;99.90
46508;DHT22;32223;53.654;10.014;2023-01-23T02:04:47;2.10;99.90
46508;DHT22;32223;53.654;10.014;2023-01-23T02:07:31;2.00;99.90
46508;DHT22;32223;53.654;10.014;2023-01-23T02:09:58;2.00;99.90
46508;DHT22;32223;53.654;10.014;2023-01-23T02:12:25;2.00;99.90
46508;DHT22;32223;53.654;10.014;2023-01-23T02:14:52;2.00;99.90
46508;DHT22;32223;53.654;10.014;2023-01-23T02:17:18;2.00;99.90
46508;DHT22;32223;53.654;10.014;2023-01-23T02:22:29;1.90;99.90
46508;DHT22;32223;53.654;10.014;2023-01-23T02:25:09;1.90;99.90
46508;DHT22;32223;53.654;10.014;2023-01-23T02:27:39;1.90;99.90
46508;DHT22;32223;53.654;10.014;2023-01-23T02:30:05;1.90;99.90
46508;DHT22;32223;53.654;10.014;2023-01-23T02:32:32;1.90;99.90
46508;DHT22;32223;53.654;10.014;2023-01-23T02:35:03;1.90;99.90
46508;DHT22;32223;53.654;10.014;2023-01-23T02:37:31;1.90;99.90
46508;DHT22;32223;53.654;10.014;2023-01-23T02:39:58;1.80;99.90
46508;DHT22;32223;53.654;10.014;2023-01-23T02:42:26;1.80;99.90
46508;DHT22;32223;53.654;10.014;2023-01-23T02:44:51;1.80;99.90
46508;DHT22;32223;53.654;10.014;2023-01-23T02:47:20;1.80;99.90
46508;DHT22;32223;53.654;10.014;2023-01-23T02:49:45;1.80;99.90
46508;DHT22;32223;53.654;10.014;2023-01-23T02:52:11;1.90;99.90
46508;DHT22;32223;53.654;10.014;2023-01-23T02:54:37;1.80;99.90
46508;DHT22;32223;53.654;10.014;2023-01-23T02:57:04;1.80;99.90
46508;DHT22;32223;53.654;10.014;2023-01-23T02:59:30;1.80;99.90
46508;DHT22;32223;53.654;10.014;2023-01-23T03:02:14;1.80;99.90
46508;DHT22;32223;53.654;10.014;2023-01-23T03:04:40;1.90;99.90
46508;DHT22;32223;53.654;10.014;2023-01-23T03:07:06;1.80;99.90
46508;DHT22;32223;53.654;10.014;2023-01-23T03:09:31;1.80;99.90
46508;DHT22;32223;53.654;10.014;2023-01-23T03:11:57;1.80;99.90
46508;DHT22;32223;53.654;10.014;2023-01-23T03:14:24;1.80;99.90
46508;DHT22;32223;53.654;10.014;2023-01-23T03:16:50;1.80;99.90
46508;DHT22;32223;53.654;10.014;2023-01-23T03:19:19;1.80;99.90
46508;DHT22;32223;53.654;10.014;2023-01-23T03:21:45;1.80;99.90
46508;DHT22;32223;53.654;10.014;2023-01-23T03:24:12;1.80;99.90
46508;DHT22;32223;53.654;10.014;2023-01-23T03:26:43;1.80;99.90
46508;DHT22;32223;53.654;10.014;2023-01-23T03:29:16;1.70;99.90
46508;DHT22;32223;53.654;10.014;2023-01-23T03:32:02;1.70;99.90
46508;DHT22;32223;53.654;10.014;2023-01-23T03:34:29;1.70;99.90
46508;DHT22;32223;53.654;10.014;2023-01-23T03:36:55;1.70;99.90
46508;DHT22;32223;53.654;10.014;2023-01-23T03:39:21;1.70;99.90
46508;DHT22;32223;53.654;10.014;2023-01-23T03:42:05;1.70;99.90
46508;DHT22;32223;53.654;10.014;2023-01-23T03:44:31;1.70;99.90
46508;DHT22;32223;53.654;10.014;2023-01-23T03:46:56;1.70;99.90
46508;DHT22;32223;53.654;10.014;2023-01-23T03:49:22;1.70;99.90
46508;DHT22;32223;53.654;10.014;2023-01-23T03:51:47;1.70;99.90
46508;DHT22;32223;53.654;10.014;2023-01-23T03:54:13;1.70;99.90
46508;DHT22;32223;53.654;10.014;2023-01-23T03:56:39;1.80;99.90
46508;DHT22;32223;53.654;10.014;2023-01-23T03:59:06;1.60;99.90
46508;DHT22;32223;53.654;10.014;2023-01-23T04:01:31;1.70;99.90
46508;DHT22;32223;53.654;10.014;2023-01-23T04:03:57;1.70;99.90
46508;DHT22;32223;53.654;10.014;2023-01-23T04:06:23;1.60;99.90
46508;DHT22;32223;53.654;10.014;2023-01-23T04:08:49;1.60;99.90
46508;DHT22;32223;53.654;10.014;2023-01-23T04:11:14;1.60;99.90
46508;DHT22;32223;53.654;10.014;2023-01-23T04:13:40;1.50;99.90
46508;DHT22;32223;53.654;10.014;2023-01-23T04:16:06;1.70;99.90
46508;DHT22;32223;53.654;10.014;2023-01-23T04:18:32;1.70;99.90
46508;DHT22;32223;53.654;10.014;2023-01-23T04:20:59;1.70;99.90
46508;DHT22;32223;53.654;10.014;2023-01-23T04:23:25;1.70;99.90
46508;DHT22;32223;53.654;10.014;2023-01-23T04:25:51;1.60;99.90
46508;DHT22;32223;53.654;10.014;2023-01-23T04:28:17;1.60;99.90
46508;DHT22;32223;53.654;10.014;2023-01-23T04:30:43;1.60;99.90
46508;DHT22;32223;53.654;10.014;2023-01-23T04:33:09;1.70;99.90
46508;DHT22;32223;53.654;10.014;2023-01-23T04:35:34;1.70;99.90
46508;DHT22;32223;53.654;10.014;2023-01-23T04:38:00;1.70;99.90
46508;DHT22;32223;53.654;10.014;2023-01-23T04:40:26;1.70;99.90
46508;DHT22;32223;53.654;10.014;2023-01-23T04:42:51;1.70;99.90
46508;DHT22;32223;53.654;10.014;2023-01-23T04:45:17;1.70;99.90
46508;DHT22;32223;53.654;10.014;2023-01-23T04:47:43;1.70;99.90
46508;DHT22;32223;53.654;10.014;2023-01-23T04:50:09;1.70;99.90
46508;DHT22;32223;53.654;10.014;2023-01-23T04:52:34;1.80;99.90
46508;DHT22;32223;53.654;10.014;2023-01-23T04:55:00;1.70;99.90
46508;DHT22;32223;53.654;10.014;2023-01-23T04:57:26;1.70;99.90
46508;DHT22;32223;53.654;10.014;2023-01-23T04:59:51;1.70;99.90
46508;DHT22;32223;53.654;10.014;2023-01-23T05:02:17;1.70;99.90
46508;DHT22;32223;53.654;10.014;2023-01-23T05:04:43;1.70;99.90
46508;DHT22;32223;53.654;10.014;2023-01-23T05:07:09;1.70;99.90
46508;DHT22;32223;53.654;10.014;2023-01-23T05:09:37;1.70;99.90
46508;DHT22;32223;53.654;10.014;2023-01-23T05:12:03;1.70;99.90
46508;DHT22;32223;53.654;10.014;2023-01-23T05:14:29;1.70;99.90
46508;DHT22;32223;53.654;10.014;2023-01-23T05:16:54;1.60;99.90
46508;DHT22;32223;53.654;10.014;2023-01-23T05:19:20;1.70;99.90
46508;DHT22;32223;53.654;10.014;2023-01-23T05:21:46;1.70;99.90
46508;DHT22;32223;53.654;10.014;2023-01-23T05:24:12;1.70;99.90
46508;DHT22;32223;53.654;10.014;2023-01-23T05:26:37;1.70;99.90
46508;DHT22;32223;53.654;10.014;2023-01-23T05:29:03;1.70;99.90
46508;DHT22;32223;53.654;10.014;2023-01-23T05:31:29;1.70;99.90
46508;DHT22;32223;53.654;10.014;2023-01-23T05:33:54;1.70;99.90
46508;DHT22;32223;53.654;10.014;2023-01-23T05:36:20;1.70;99.90
46508;DHT22;32223;53.654;10.014;2023-01-23T05:38:46;1.70;99.90
46508;DHT22;32223;53.654;10.014;2023-01-23T05:41:11;1.70;99.90
46508;DHT22;32223;53.654;10.014;2023-01-23T05:43:37;1.70;99.90
46508;DHT22;32223;53.654;10.014;2023-01-23T05:46:02;1.60;99.90
46508;DHT22;32223;53.654;10.014;2023-01-23T05:48:28;1.60;99.90
46508;DHT22;32223;53.654;10.014;2023-01-23T05:50:54;1.60;99.90
46508;DHT22;32223;53.654;10.014;2023-01-23T05:53:19;1.60;99.90
46508;DHT22;32223;53.654;10.014;2023-01-23T05:55:45;1.60;99.90
46508;DHT22;32223;53.654;10.014;2023-01-23T05:58:11;1.60;99.90
46508;DHT22;32223;53.654;10.014;2023-01-23T06:00:36;1.60;99.90
46508;DHT22;32223;53.654;10.014;2023-01-23T06:03:02;1.60;99.90
46508;DHT22;32223;53.654;10.014;2023-01-23T06:05:28;1.60;99.90
46508;DHT22;32223;53.654;10.014;2023-01-23T06:07:54;1.60;99.90
46508;DHT22;32223;53.654;10.014;2023-01-23T06:10:20;1.60;99.90
46508;DHT22;32223;53.654;10.014;2023-01-23T06:12:45;1.60;99.90
46508;DHT22;32223;53.654;10.014;2023-01-23T06:15:11;1.50;99.90
46508;DHT22;32223;53.654;10.014;2023-01-23T06:17:37;1.60;99.90
46508;DHT22;32223;53.654;10.014;2023-01-23T06:20:03;1.60;99.90
46508;DHT22;32223;53.654;10.014;2023-01-23T06:22:29;1.60;99.90
46508;DHT22;32223;53.654;10.014;2023-01-23T06:24:54;1.60;99.90
46508;DHT22;32223;53.654;10.014;2023-01-23T06:27:20;1.60;99.90
46508;DHT22;32223;53.654;10.014;2023-01-23T06:29:45;1.60;99.90
46508;DHT22;32223;53.654;10.014;2023-01-23T06:32:12;1.60;99.90
46508;DHT22;32223;53.654;10.014;2023-01-23T06:34:37;1.60;99.90
46508;DHT22;32223;53.654;10.014;2023-01-23T06:37:03;1.60;99.90
46508;DHT22;32223;53.654;10.014;2023-01-23T06:39:29;1.60;99.90
46508;DHT22;32223;53.654;10.014;2023-01-23T06:41:55;1.60;99.90
46508;DHT22;32223;53.654;10.014;2023-01-23T06:44:21;1.60;99.90
46508;DHT22;32223;53.654;10.014;2023-01-23T06:46:46;1.60;99.90
46508;DHT22;32223;53.654;10.014;2023-01-23T06:49:12;1.60;99.90
46508;DHT22;32223;53.654;10.014;2023-01-23T06:51:38;1.60;99.90
46508;DHT22;32223;53.654;10.014;2023-01-23T06:54:03;1.60;99.90
46508;DHT22;32223;53.654;10.014;2023-01-23T06:56:29;1.60;99.90
46508;DHT22;32223;53.654;10.014;2023-01-23T06:58:55;1.60;99.90
46508;DHT22;32223;53.654;10.014;2023-01-23T07:01:20;1.60;99.90
46508;DHT22;32223;53.654;10.014;2023-01-23T07:03:46;1.60;99.90
46508;DHT22;32223;53.654;10.014;2023-01-23T07:06:13;1.60;99.90
46508;DHT22;32223;53.654;10.014;2023-01-23T07:08:39;1.60;99.90
46508;DHT22;32223;53.654;10.014;2023-01-23T07:11:05;1.60;99.90
46508;DHT22;32223;53.654;10.014;2023-01-23T07:13:31;1.70;99.90
46508;DHT22;32223;53.654;10.014;2023-01-23T07:15:57;1.70;99.90
46508;DHT22;32223;53.654;10.014;2023-01-23T07:18:23;1.70;99.90
46508;DHT22;32223;53.654;10.014;2023-01-23T07:20:49;1.60;99.90
46508;DHT22;32223;53.654;10.014;2023-01-23T07:23:16;1.60;99.90
46508;DHT22;32223;53.654;10.014;2023-01-23T07:25:41;1.60;99.90
46508;DHT22;32223;53.654;10.014;2023-01-23T07:28:07;1.60;99.90
46508;DHT22;32223;53.654;10.014;2023-01-23T07:30:33;1.60;99.90
46508;DHT22;32223;53.654;10.014;2023-01-23T07:32:58;1.60;99.90
46508;DHT22;32223;53.654;10.014;2023-01-23T07:35:25;1.60;99.90
46508;DHT22;32223;53.654;10.014;2023-01-23T07:37:50;1.60;99.90
46508;DHT22;32223;53.654;10.014;2023-01-23T07:40:16;1.70;99.90
46508;DHT22;32223;53.654;10.014;2023-01-23T07:42:42;1.70;99.90
46508;DHT22;32223;53.654;10.014;2023-01-23T07:45:09;1.70;99.90
46508;DHT22;32223;53.654;10.014;2023-01-23T07:47:36;1.70;99.90
46508;DHT22;32223;53.654;10.014;2023-01-23T07:50:04;1.70;99.90
46508;DHT22;32223;53.654;10.014;2023-01-23T07:52:30;1.70;99.90
46508;DHT22;32223;53.654;10.014;2023-01-23T07:54:56;1.70;99.90
46508;DHT22;32223;53.654;10.014;2023-01-23T07:57:21;1.70;99.90
46508;DHT22;32223;53.654;10.014;2023-01-23T07:59:47;1.80;99.90
46508;DHT22;32223;53.654;10.014;2023-01-23T08:02:12;1.80;99.90
46508;DHT22;32223;53.654;10.014;2023-01-23T08:04:38;1.80;99.90
46508;DHT22;32223;53.654;10.014;2023-01-23T08:07:04;1.80;99.90
46508;DHT22;32223;53.654;10.014;2023-01-23T08:09:30;1.80;99.90
46508;DHT22;32223;53.654;10.014;2023-01-23T08:11:56;1.80;99.90
46508;DHT22;32223;53.654;10.014;2023-01-23T08:14:21;1.80;99.90
46508;DHT22;32223;53.654;10.014;2023-01-23T08:16:51;1.80;99.90
46508;DHT22;32223;53.654;10.014;2023-01-23T08:19:17;1.80;99.90
46508;DHT22;32223;53.654;10.014;2023-01-23T08:21:43;1.80;99.90
46508;DHT22;32223;53.654;10.014;2023-01-23T08:24:13;1.80;99.90
46508;DHT22;32223;53.654;10.014;2023-01-23T08:26:39;1.80;99.90
46508;DHT22;32223;53.654;10.014;2023-01-23T08:29:06;1.80;99.90
46508;DHT22;32223;53.654;10.014;2023-01-23T08:31:31;1.90;99.90
46508;DHT22;32223;53.654;10.014;2023-01-23T08:33:57;1.80;99.90
46508;DHT22;32223;53.654;10.014;2023-01-23T08:36:22;1.90;99.90
46508;DHT22;32223;53.654;10.014;2023-01-23T08:38:48;1.90;99.90
46508;DHT22;32223;53.654;10.014;2023-01-23T08:41:14;1.90;99.90
46508;DHT22;32223;53.654;10.014;2023-01-23T08:43:40;2.00;99.90
46508;DHT22;32223;53.654;10.014;2023-01-23T08:46:06;2.00;99.90
46508;DHT22;32223;53.654;10.014;2023-01-23T08:48:33;2.00;99.90
46508;DHT22;32223;53.654;10.014;2023-01-23T08:51:04;2.00;99.90
46508;DHT22;32223;53.654;10.014;2023-01-23T08:53:31;2.00;99.90
46508;DHT22;32223;53.654;10.014;2023-01-23T08:56:02;2.00;99.90
46508;DHT22;32223;53.654;10.014;2023-01-23T08:58:28;2.00;99.90
46508;DHT22;32223;53.654;10.014;2023-01-23T09:00:54;2.00;99.90
46508;DHT22;32223;53.654;10.014;2023-01-23T09:03:20;2.10;99.90
46508;DHT22;32223;53.654;10.014;2023-01-23T09:05:45;2.20;99.90
46508;DHT22;32223;53.654;10.014;2023-01-23T09:08:11;2.20;99.90
46508;DHT22;32223;53.654;10.014;2023-01-23T09:10:37;2.20;99.90
46508;DHT22;32223;53.654;10.014;2023-01-23T09:13:02;2.20;99.90
46508;DHT22;32223;53.654;10.014;2023-01-23T09:15:28;2.20;99.90
46508;DHT22;32223;53.654;10.014;2023-01-23T09:17:54;2.20;99.90
46508;DHT22;32223;53.654;10.014;2023-01-23T09:20:19;2.30;99.90
46508;DHT22;32223;53.654;10.014;2023-01-23T09:22:45;2.30;99.90
46508;DHT22;32223;53.654;10.014;2023-01-23T09:25:11;2.30;99.90
46508;DHT22;32223;53.654;10.014;2023-01-23T09:27:37;2.30;99.90
46508;DHT22;32223;53.654;10.014;2023-01-23T09:30:03;2.30;99.90
46508;DHT22;32223;53.654;10.014;2023-01-23T09:32:29;2.40;99.90
46508;DHT22;32223;53.654;10.014;2023-01-23T09:34:54;2.40;99.90
46508;DHT22;32223;53.654;10.014;2023-01-23T09:37:20;2.40;99.90
46508;DHT22;32223;53.654;10.014;2023-01-23T09:39:46;2.40;99.90
46508;DHT22;32223;53.654;10.014;2023-01-23T09:42:38;2.40;99.90
46508;DHT22;32223;53.654;10.014;2023-01-23T09:45:06;2.50;99.90
46508;DHT22;32223;53.654;10.014;2023-01-23T09:47:50;2.50;99.90
46508;DHT22;32223;53.654;10.014;2023-01-23T09:50:26;2.50;99.90
46508;DHT22;32223;53.654;10.014;2023-01-23T09:53:08;2.60;99.90
46508;DHT22;32223;53.654;10.014;2023-01-23T09:55:56;2.70;99.90
46508;DHT22;32223;53.654;10.014;2023-01-23T09:58:27;2.60;99.90
46508;DHT22;32223;53.654;10.014;2023-01-23T10:00:54;2.70;99.90
46508;DHT22;32223;53.654;10.014;2023-01-23T10:03:22;2.70;99.90
46508;DHT22;32223;53.654;10.014;2023-01-23T10:06:20;2.80;99.90
46508;DHT22;32223;53.654;10.014;2023-01-23T10:09:19;2.80;99.90
46508;DHT22;32223;53.654;10.014;2023-01-23T10:19:42;3.00;99.90
46508;DHT22;32223;53.654;10.014;2023-01-23T10:22:34;3.00;99.90
46508;DHT22;32223;53.654;10.014;2023-01-23T10:25:23;3.00;99.90
46508;DHT22;32223;53.654;10.014;2023-01-23T10:27:51;3.00;99.90
46508;DHT22;32223;53.654;10.014;2023-01-23T10:30:26;3.10;99.90
46508;DHT22;32223;53.654;10.014;2023-01-23T10:33:10;3.10;99.90
46508;DHT22;32223;53.654;10.014;2023-01-23T10:40:37;3.30;99.90
46508;DHT22;32223;53.654;10.014;2023-01-23T10:43:21;3.30;99.90
46508;DHT22;32223;53.654;10.014;2023-01-23T10:45:48;3.40;99.90
46508;DHT22;32223;53.654;10.014;2023-01-23T10:50:52;3.40;99.90
46508;DHT22;32223;53.654;10.014;2023-01-23T10:53:19;3.30;99.90
46508;DHT22;32223;53.654;10.014;2023-01-23T10:55:45;3.30;99.90
46508;DHT22;32223;53.654;10.014;2023-01-23T10:58:35;3.30;99.90
46508;DHT22;32223;53.654;10.014;2023-01-23T11:01:02;3.40;99.90
46508;DHT22;32223;53.654;10.014;2023-01-23T11:03:30;3.40;99.90
46508;DHT22;32223;53.654;10.014;2023-01-23T11:08:38;3.50;99.90
46508;DHT22;32223;53.654;10.014;2023-01-23T11:13:40;3.50;99.90
46508;DHT22;32223;53.654;10.014;2023-01-23T11:16:11;3.60;99.90
46508;DHT22;32223;53.654;10.014;2023-01-23T11:18:44;3.50;99.90
46508;DHT22;32223;53.654;10.014;2023-01-23T11:21:28;3.50;99.90
46508;DHT22;32223;53.654;10.014;2023-01-23T11:26:34;3.50;99.90
46508;DHT22;32223;53.654;10.014;2023-01-23T11:28:59;3.50;99.90
46508;DHT22;32223;53.654;10.014;2023-01-23T11:31:25;3.50;99.90
46508;DHT22;32223;53.654;10.014;2023-01-23T11:34:11;3.50;99.90
46508;DHT22;32223;53.654;10.014;2023-01-23T11:39:44;3.60;99.90
46508;DHT22;32223;53.654;10.014;2023-01-23T11:42:14;3.60;99.90
46508;DHT22;32223;53.654;10.014;2023-01-23T11:44:41;3.50;99.90
46508;DHT22;32223;53.654;10.014;2023-01-23T11:47:36;3.40;99.90
46508;DHT22;32223;53.654;10.014;2023-01-23T11:52:38;3.50;99.90
46508;DHT22;32223;53.654;10.014;2023-01-23T11:55:17;3.50;99.90
46508;DHT22;32223;53.654;10.014;2023-01-23T11:58:21;3.50;99.90
46508;DHT22;32223;53.654;10.014;2023-01-23T12:01:18;3.40;99.90
46508;DHT22;32223;53.654;10.014;2023-01-23T12:09:19;3.60;99.90
46508;DHT22;32223;53.654;10.014;2023-01-23T12:12:08;3.60;99.90
46508;DHT22;32223;53.654;10.014;2023-01-23T12:17:35;3.50;99.90
46508;DHT22;32223;53.654;10.014;2023-01-23T12:25:31;3.60;99.90
46508;DHT22;32223;53.654;10.014;2023-01-23T12:31:15;3.50;99.90
46508;DHT22;32223;53.654;10.014;2023-01-23T12:41:44;3.50;99.90
46508;DHT22;32223;53.654;10.014;2023-01-23T12:44:26;3.50;99.90
46508;DHT22;32223;53.654;10.014;2023-01-23T12:47:09;3.50;99.90
46508;DHT22;32223;53.654;10.014;2023-01-23T12:49:47;3.50;99.90
46508;DHT22;32223;53.654;10.014;2023-01-23T12:52:38;3.40;99.90
46508;DHT22;32223;53.654;10.014;2023-01-23T12:55:27;3.40;99.90
46508;DHT22;32223;53.654;10.014;2023-01-23T12:57:56;3.40;99.90
46508;DHT22;32223;53.654;10.014;2023-01-23T13:09:20;3.50;99.90
46508;DHT22;32223;53.654;10.014;2023-01-23T13:12:16;3.50;99.90
46508;DHT22;32223;53.654;10.014;2023-01-23T13:14:44;3.50;99.90
46508;DHT22;32223;53.654;10.014;2023-01-23T13:20:21;3.50;99.90
46508;DHT22;32223;53.654;10.014;2023-01-23T13:25:48;3.50;99.90
46508;DHT22;32223;53.654;10.014;2023-01-23T13:28:53;3.50;99.90
46508;DHT22;32223;53.654;10.014;2023-01-23T13:36:49;3.60;99.90
46508;DHT22;32223;53.654;10.014;2023-01-23T13:41:45;3.60;99.90
46508;DHT22;32223;53.654;10.014;2023-01-23T13:44:22;3.60;99.90
46508;DHT22;32223;53.654;10.014;2023-01-23T13:52:28;3.40;99.90
46508;DHT22;32223;53.654;10.014;2023-01-23T13:55:26;3.40;99.90
46508;DHT22;32223;53.654;10.014;2023-01-23T13:58:17;3.40;99.90
46508;DHT22;32223;53.654;10.014;2023-01-23T14:01:00;3.40;99.90
46508;DHT22;32223;53.654;10.014;2023-01-23T14:04:04;3.40;99.90
46508;DHT22;32223;53.654;10.014;2023-01-23T14:06:48;3.30;99.90
46508;DHT22;32223;53.654;10.014;2023-01-23T14:09:23;3.30;99.90
46508;DHT22;32223;53.654;10.014;2023-01-23T14:11:59;3.30;99.90
46508;DHT22;32223;53.654;10.014;2023-01-23T14:14:35;3.30;99.90
46508;DHT22;32223;53.654;10.014;2023-01-23T14:17:21;3.30;99.90
46508;DHT22;32223;53.654;10.014;2023-01-23T14:19:59;3.30;99.90
46508;DHT22;32223;53.654;10.014;2023-01-23T14:22:29;3.30;99.90
46508;DHT22;32223;53.654;10.014;2023-01-23T14:24:56;3.30;99.90
46508;DHT22;32223;53.654;10.014;2023-01-23T14:27:35;3.20;99.90
46508;DHT22;32223;53.654;10.014;2023-01-23T14:32:36;3.20;99.90
46508;DHT22;32223;53.654;10.014;2023-01-23T14:35:15;3.20;99.90
46508;DHT22;32223;53.654;10.014;2023-01-23T14:37:41;3.20;99.90
46508;DHT22;32223;53.654;10.014;2023-01-23T14:40:16;3.20;99.90
46508;DHT22;32223;53.654;10.014;2023-01-23T14:42:43;3.20;99.90
46508;DHT22;32223;53.654;10.014;2023-01-23T14:45:11;3.20;99.90
46508;DHT22;32223;53.654;10.014;2023-01-23T14:47:41;3.20;99.90
46508;DHT22;32223;53.654;10.014;2023-01-23T14:50:17;3.10;99.90
46508;DHT22;32223;53.654;10.014;2023-01-23T14:52:43;3.10;99.90
46508;DHT22;32223;53.654;10.014;2023-01-23T14:55:23;3.20;99.90
46508;DHT22;32223;53.654;10.014;2023-01-23T14:57:50;3.20;99.90
46508;DHT22;32223;53.654;10.014;2023-01-23T15:00:19;3.20;99.90
46508;DHT22;32223;53.654;10.014;2023-01-23T15:02:47;3.20;99.90
46508;DHT22;32223;53.654;10.014;2023-01-23T15:05:19;3.20;99.90
46508;DHT22;32223;53.654;10.014;2023-01-23T15:13:01;3.20;99.90
46508;DHT22;32223;53.654;10.014;2023-01-23T15:15:29;3.20;99.90
46508;DHT22;32223;53.654;10.014;2023-01-23T15:17:57;3.10;99.90
46508;DHT22;32223;53.654;10.014;2023-01-23T15:20:36;3.20;99.90
46508;DHT22;32223;53.654;10.014;2023-01-23T15:29:17;3.10;99.90
46508;DHT22;32223;53.654;10.014;2023-01-23T15:31:44;3.10;99.90
46508;DHT22;32223;53.654;10.014;2023-01-23T15:36:49;3.00;99.90
46508;DHT22;32223;53.654;10.014;2023-01-23T15:39:25;3.00;99.90
46508;DHT22;32223;53.654;10.014;2023-01-23T15:42:50;3.00;99.90
46508;DHT22;32223;53.654;10.014;2023-01-23T15:44:47;3.00;99.90
46508;DHT22;32223;53.654;10.014;2023-01-23T15:47:12;3.00;99.90
46508;DHT22;32223;53.654;10.014;2023-01-23T15:49:39;3.00;99.90
46508;DHT22;32223;53.654;10.014;2023-01-23T15:52:23;3.00;99.90
46508;DHT22;32223;53.654;10.014;2023-01-23T15:54:54;3.10;99.90
46508;DHT22;32223;53.654;10.014;2023-01-23T15:57:21;3.10;99.90
46508;DHT22;32223;53.654;10.014;2023-01-23T15:59:46;3.10;99.90
46508;DHT22;32223;53.654;10.014;2023-01-23T16:02:30;3.10;99.90
46508;DHT22;32223;53.654;10.014;2023-01-23T16:04:56;3.10;99.90
46508;DHT22;32223;53.654;10.014;2023-01-23T16:07:33;3.10;99.90
46508;DHT22;32223;53.654;10.014;2023-01-23T16:10:00;3.10;99.90
46508;DHT22;32223;53.654;10.014;2023-01-23T16:12:28;3.10;99.90
46508;DHT22;32223;53.654;10.014;2023-01-23T16:14:54;3.00;99.90
46508;DHT22;32223;53.654;10.014;2023-01-23T16:17:20;3.00;99.90
46508;DHT22;32223;53.654;10.014;2023-01-23T16:19:46;3.00;99.90
46508;DHT22;32223;53.654;10.014;2023-01-23T16:22:25;3.00;99.90
46508;DHT22;32223;53.654;10.014;2023-01-23T16:24:51;3.00;99.90
46508;DHT22;32223;53.654;10.014;2023-01-23T16:27:18;3.00;99.90
46508;DHT22;32223;53.654;10.014;2023-01-23T16:29:46;3.00;99.90
46508;DHT22;32223;53.654;10.014;2023-01-23T16:32:13;3.00;99.90
46508;DHT22;32223;53.654;10.014;2023-01-23T16:34:39;3.00;99.90
46508;DHT22;32223;53.654;10.014;2023-01-23T16:37:12;2.90;99.90
46508;DHT22;32223;53.654;10.014;2023-01-23T16:39:40;2.90;99.90
46508;DHT22;32223;53.654;10.014;2023-01-23T16:42:13;2.90;99.90
46508;DHT22;32223;53.654;10.014;2023-01-23T16:44:39;3.00;99.90
46508;DHT22;32223;53.654;10.014;2023-01-23T16:47:04;3.00;99.90
46508;DHT22;32223;53.654;10.014;2023-01-23T16:49:30;3.10;99.90
46508;DHT22;32223;53.654;10.014;2023-01-23T16:51:57;3.10;99.90
46508;DHT22;32223;53.654;10.014;2023-01-23T16:54:24;3.10;99.90
46508;DHT22;32223;53.654;10.014;2023-01-23T16:56:50;3.20;99.90
46508;DHT22;32223;53.654;10.014;2023-01-23T16:59:36;3.10;99.90
46508;DHT22;32223;53.654;10.014;2023-01-23T17:02:11;3.00;99.90
46508;DHT22;32223;53.654;10.014;2023-01-23T17:04:39;3.00;99.90
46508;DHT22;32223;53.654;10.014;2023-01-23T17:07:11;3.00;99.90
46508;DHT22;32223;53.654;10.014;2023-01-23T17:09:38;2.90;99.90
46508;DHT22;32223;53.654;10.014;2023-01-23T17:12:03;3.00;99.90
46508;DHT22;32223;53.654;10.014;2023-01-23T17:14:30;3.00;99.90
46508;DHT22;32223;53.654;10.014;2023-01-23T17:17:01;3.00;99.90
46508;DHT22;32223;53.654;10.014;2023-01-23T17:19:32;2.90;99.90
46508;DHT22;32223;53.654;10.014;2023-01-23T17:22:00;2.90;99.90
46508;DHT22;32223;53.654;10.014;2023-01-23T17:24:28;2.90;99.90
46508;DHT22;32223;53.654;10.014;2023-01-23T17:26:53;2.90;99.90
46508;DHT22;32223;53.654;10.014;2023-01-23T17:29:19;3.00;99.90
46508;DHT22;32223;53.654;10.014;2023-01-23T17:31:45;3.00;99.90
46508;DHT22;32223;53.654;10.014;2023-01-23T17:34:19;3.00;99.90